createdAt,value
2023-05-20T00:02:10.021Z,102331.63
2023-05-20T00:04:36.907Z,102335.59
2023-05-20T00:07:04.358Z,102337.22
2023-05-20T00:09:31.134Z,102333.94
2023-05-20T00:11:58.057Z,102340.34
2023-05-20T00:14:25.048Z,102341.16
2023-05-20T00:16:54.818Z,102331.63
2023-05-20T00:19:21.754Z,102336.53
2023-05-20T00:21:48.604Z,102330.97
2023-05-20T00:24:15.338Z,102332.44
2023-05-20T00:26:42.174Z,102329.19
2023-05-20T00:29:08.900Z,102338.03
2023-05-20T00:31:35.922Z,102335.41
2023-05-20T00:34:02.743Z,102334.22
2023-05-20T00:36:29.591Z,102338.19
2023-05-20T00:38:56.433Z,102328.84
2023-05-20T00:41:23.232Z,102326.72
2023-05-20T00:43:54.835Z,102323.25
2023-05-20T00:46:23.692Z,102320.81
2023-05-20T00:48:51.399Z,102322.31
2023-05-20T00:51:20.286Z,102327.53
2023-05-20T00:53:47.574Z,102325.56
2023-05-20T00:56:14.589Z,102321.50
2023-05-20T00:58:41.541Z,102319.06
2023-05-20T01:01:08.441Z,102321.69
2023-05-20T01:03:35.722Z,102322.03
2023-05-20T01:06:03.388Z,102315.00
2023-05-20T01:08:34.283Z,102309.44
2023-05-20T01:11:09.292Z,102308.41
2023-05-20T01:13:48.551Z,102298.56
2023-05-20T01:16:19.067Z,102307.09
2023-05-20T01:18:48.716Z,102302.34
2023-05-20T01:21:16.020Z,102301.53
2023-05-20T01:23:42.787Z,102307.78
2023-05-20T01:26:13.968Z,102297.44
2023-05-20T01:28:43.935Z,102301.72
2023-05-20T01:31:19.796Z,102304.50
2023-05-20T01:33:50.934Z,102297.97
2023-05-20T01:36:20.225Z,102293.41
2023-05-20T01:38:48.501Z,102292.09
2023-05-20T01:41:15.485Z,102280.94
2023-05-20T01:43:43.866Z,102288.00
2023-05-20T01:46:11.044Z,102285.06
2023-05-20T01:48:38.458Z,102282.97
2023-05-20T01:51:05.436Z,102283.94
2023-05-20T01:53:32.313Z,102289.41
2023-05-20T01:55:59.129Z,102289.59
2023-05-20T01:58:26.053Z,102281.88
2023-05-20T02:00:52.874Z,102285.31
2023-05-20T02:03:19.745Z,102276.47
2023-05-20T02:05:46.730Z,102274.66
2023-05-20T02:08:13.524Z,102277.78
2023-05-20T02:10:40.419Z,102273.84
2023-05-20T02:13:07.226Z,102275.47
2023-05-20T02:15:34.354Z,102262.22
2023-05-20T02:18:02.580Z,102268.97
2023-05-20T02:20:30.484Z,102265.34
2023-05-20T02:22:57.364Z,102262.88
2023-05-20T02:25:24.107Z,102262.56
2023-05-20T02:27:55.759Z,102265.34
2023-05-20T02:30:22.526Z,102265.66
2023-05-20T02:32:49.473Z,102264.03
2023-05-20T02:35:16.644Z,102266.34
2023-05-20T02:37:45.005Z,102257.00
2023-05-20T02:40:12.109Z,102264.88
2023-05-20T02:42:38.938Z,102261.63
2023-05-20T02:45:06.751Z,102261.94
2023-05-20T02:47:33.596Z,102269.00
2023-05-20T02:50:00.435Z,102271.28
2023-05-20T02:52:30.147Z,102256.91
2023-05-20T02:54:57.060Z,102253.28
2023-05-20T02:57:24.454Z,102244.94
2023-05-20T02:59:52.559Z,102250.81
2023-05-20T03:02:19.426Z,102250.34
2023-05-20T03:04:47.566Z,102243.16
2023-05-20T03:07:14.877Z,102243.47
2023-05-20T03:09:42.254Z,102243.00
2023-05-20T03:12:09.060Z,102237.41
2023-05-20T03:14:35.908Z,102232.69
2023-05-20T03:17:02.799Z,102223.50
2023-05-20T03:19:29.629Z,102223.50
2023-05-20T03:21:56.380Z,102224.63
2023-05-20T03:24:23.662Z,102232.69
2023-05-20T03:26:50.829Z,102234.28
2023-05-20T03:29:18.167Z,102227.09
2023-05-20T03:31:45.292Z,102219.88
2023-05-20T03:34:12.104Z,102221.19
2023-05-20T03:36:39.198Z,102212.00
2023-05-20T03:39:06.001Z,102216.44
2023-05-20T03:41:33.015Z,102219.22
2023-05-20T03:43:59.782Z,102211.19
2023-05-20T03:46:31.271Z,102210.06
2023-05-20T03:48:58.427Z,102207.09
2023-05-20T03:51:25.194Z,102198.94
2023-05-20T03:53:52.031Z,102197.63
2023-05-20T03:56:18.841Z,102199.59
2023-05-20T03:58:45.691Z,102198.81
2023-05-20T04:01:15.525Z,102201.06
2023-05-20T04:03:42.725Z,102203.06
2023-05-20T04:06:09.768Z,102195.50
2023-05-20T04:08:39.668Z,102196.34
2023-05-20T04:11:07.005Z,102198.81
2023-05-20T04:13:33.911Z,102194.84
2023-05-20T04:16:18.388Z,102190.75
2023-05-20T04:18:46.253Z,102196.34
2023-05-20T04:21:13.129Z,102193.06
2023-05-20T04:23:40.056Z,102197.69
2023-05-20T04:26:07.192Z,102186.38
2023-05-20T04:28:34.458Z,102188.69
2023-05-20T04:31:05.152Z,102189.47
2023-05-20T04:33:33.124Z,102190.78
2023-05-20T04:36:01.661Z,102196.34
2023-05-20T04:38:30.297Z,102201.59
2023-05-20T04:40:58.289Z,102208.00
2023-05-20T04:43:26.524Z,102201.13
2023-05-20T04:45:53.414Z,102201.91
2023-05-20T04:48:20.674Z,102203.91
2023-05-20T04:50:48.641Z,102193.56
2023-05-20T04:53:16.692Z,102200.78
2023-05-20T04:55:43.588Z,102196.03
2023-05-20T04:58:15.366Z,102201.59
2023-05-20T05:00:42.578Z,102208.81
2023-05-20T05:03:09.993Z,102202.09
2023-05-20T05:05:37.187Z,102205.03
2023-05-20T05:08:04.375Z,102196.34
2023-05-20T05:10:31.225Z,102201.91
2023-05-20T05:12:58.100Z,102199.13
2023-05-20T05:15:25.740Z,102194.72
2023-05-20T05:18:02.179Z,102200.28
2023-05-20T05:20:29.052Z,102200.28
2023-05-20T05:22:55.859Z,102201.91
2023-05-20T05:25:22.675Z,102201.41
2023-05-20T05:27:51.267Z,102205.34
2023-05-20T05:30:18.458Z,102207.66
2023-05-20T05:32:45.445Z,102198.81
2023-05-20T05:35:12.521Z,102193.25
2023-05-20T05:37:39.356Z,102190.94
2023-05-20T05:40:08.334Z,102196.19
2023-05-20T05:42:35.227Z,102198.63
2023-05-20T05:45:02.352Z,102196.34
2023-05-20T05:47:32.707Z,102185.69
2023-05-20T05:50:03.246Z,102198.81
2023-05-20T05:52:30.024Z,102203.56
2023-05-20T05:54:56.872Z,102205.16
2023-05-20T05:57:23.726Z,102199.59
2023-05-20T05:59:50.780Z,102205.31
2023-05-20T06:02:17.740Z,102199.75
2023-05-20T06:04:44.619Z,102195.19
2023-05-20T06:07:11.548Z,102195.19
2023-05-20T06:09:39.181Z,102199.94
2023-05-20T06:12:06.285Z,102194.50
2023-05-20T06:14:33.190Z,102191.88
2023-05-20T06:17:00.208Z,102195.47
2023-05-20T06:19:27.253Z,102193.81
2023-05-20T06:21:54.083Z,102195.94
2023-05-20T06:24:22.402Z,102190.72
2023-05-20T06:26:51.290Z,102195.94
2023-05-20T06:29:18.095Z,102198.06
2023-05-20T06:31:44.838Z,102202.81
2023-05-20T06:34:11.653Z,102207.56
2023-05-20T06:36:38.415Z,102207.44
2023-05-20T06:39:06.612Z,102201.69
2023-05-20T06:41:33.463Z,102207.63
2023-05-20T06:44:00.253Z,102207.09
2023-05-20T06:46:27.081Z,102204.00
2023-05-20T06:48:53.892Z,102208.75
2023-05-20T06:51:20.677Z,102207.94
2023-05-20T06:53:47.683Z,102191.38
2023-05-20T06:56:14.499Z,102189.56
2023-05-20T06:58:41.253Z,102195.63
2023-05-20T07:01:08.349Z,102190.53
2023-05-20T07:03:35.233Z,102192.00
2023-05-20T07:06:02.023Z,102197.69
2023-05-20T07:08:28.823Z,102192.78
2023-05-20T07:10:56.958Z,102203.16
2023-05-20T07:13:24.243Z,102200.66
2023-05-20T07:15:51.099Z,102196.28
2023-05-20T07:18:19.337Z,102205.41
2023-05-20T07:20:46.129Z,102201.50
2023-05-20T07:23:14.487Z,102197.06
2023-05-20T07:25:42.449Z,102200.66
2023-05-20T07:28:21.805Z,102198.72
2023-05-20T07:30:50.590Z,102201.50
2023-05-20T07:33:19.378Z,102200.16
2023-05-20T07:35:46.302Z,102201.13
2023-05-20T07:38:13.106Z,102208.47
2023-05-20T07:40:41.519Z,102201.41
2023-05-20T07:43:09.422Z,102199.94
2023-05-20T07:45:37.384Z,102198.59
2023-05-20T07:48:05.519Z,102197.13
2023-05-20T07:50:32.433Z,102214.34
2023-05-20T07:52:59.897Z,102209.72
2023-05-20T07:55:26.745Z,102221.03
2023-05-20T07:57:53.630Z,102218.88
2023-05-20T08:00:21.070Z,102225.75
2023-05-20T08:02:48.206Z,102219.16
2023-05-20T08:05:15.165Z,102213.75
2023-05-20T08:07:41.991Z,102216.66
2023-05-20T08:10:09.468Z,102207.97
2023-05-20T08:12:36.257Z,102208.75
2023-05-20T08:15:03.237Z,102210.41
2023-05-20T08:17:33.257Z,102209.59
2023-05-20T08:20:00.051Z,102213.66
2023-05-20T08:22:26.820Z,102211.69
2023-05-20T08:24:53.580Z,102210.56
2023-05-20T08:27:20.364Z,102212.53
2023-05-20T08:29:47.093Z,102205.09
2023-05-20T08:32:16.807Z,102208.38
2023-05-20T08:34:43.568Z,102199.00
2023-05-20T08:37:10.699Z,102201.25
2023-05-20T08:39:37.954Z,102200.38
2023-05-20T08:42:07.093Z,102198.34
2023-05-20T08:44:34.976Z,102190.72
2023-05-20T08:47:03.941Z,102189.22
2023-05-20T08:49:32.069Z,102193.78
2023-05-20T08:52:01.071Z,102191.81
2023-05-20T08:54:43.176Z,102189.34
2023-05-20T08:57:10.427Z,102188.88
2023-05-20T08:59:37.693Z,102179.81
2023-05-20T09:02:04.756Z,102188.66
2023-05-20T09:04:31.516Z,102180.75
2023-05-20T09:06:58.430Z,102185.66
2023-05-20T09:09:25.207Z,102179.41
2023-05-20T09:11:52.018Z,102174.66
2023-05-20T09:14:18.848Z,102173.00
2023-05-20T09:16:45.746Z,102173.00
2023-05-20T09:19:12.622Z,102176.41
2023-05-20T09:21:41.615Z,102170.75
2023-05-20T09:24:08.533Z,102179.56
2023-05-20T09:26:35.362Z,102177.41
2023-05-20T09:29:02.154Z,102174.78
2023-05-20T09:31:33.988Z,102184.91
2023-05-20T09:34:01.563Z,102172.59
2023-05-20T09:36:30.120Z,102180.28
2023-05-20T09:39:03.384Z,102174.94
2023-05-20T09:41:35.710Z,102182.84
2023-05-20T09:44:04.207Z,102178.91
2023-05-20T09:46:31.689Z,102185.66
2023-05-20T09:48:59.936Z,102189.59
2023-05-20T09:51:29.918Z,102184.22
2023-05-20T09:53:57.969Z,102175.25
2023-05-20T09:56:25.698Z,102180.72
2023-05-20T09:58:58.410Z,102177.47
2023-05-20T10:01:25.610Z,102181.56
2023-05-20T10:03:53.808Z,102173.66
2023-05-20T10:06:50.026Z,102158.50
2023-05-20T10:10:11.066Z,102155.38
2023-05-20T10:13:08.509Z,102153.88
2023-05-20T10:15:58.430Z,102155.28
2023-05-20T10:18:54.413Z,102154.25
2023-05-20T10:21:26.191Z,102158.44
2023-05-20T10:23:54.322Z,102160.78
2023-05-20T10:26:22.522Z,102157.91
2023-05-20T10:28:49.407Z,102156.25
2023-05-20T10:31:22.651Z,102162.91
2023-05-20T10:33:53.036Z,102151.81
2023-05-20T10:36:28.060Z,102150.88
2023-05-20T10:38:59.944Z,102157.63
2023-05-20T10:41:31.359Z,102156.84
2023-05-20T10:44:04.761Z,102147.28
2023-05-20T10:46:46.329Z,102147.72
2023-05-20T10:49:22.414Z,102145.06
2023-05-20T10:51:51.689Z,102145.38
2023-05-20T10:54:18.497Z,102146.78
2023-05-20T10:56:54.947Z,102145.13
2023-05-20T10:59:22.499Z,102150.00
2023-05-20T11:01:49.479Z,102152.56
2023-05-20T11:04:17.533Z,102148.56
2023-05-20T11:06:53.684Z,102141.09
2023-05-20T11:09:20.665Z,102135.50
2023-05-20T11:11:48.242Z,102143.91
2023-05-20T11:14:15.310Z,102132.59
2023-05-20T11:16:42.925Z,102143.44
2023-05-20T11:19:15.702Z,102140.53
2023-05-20T11:21:46.435Z,102140.19
2023-05-20T11:24:13.897Z,102137.59
2023-05-20T11:26:40.952Z,102134.75
2023-05-20T11:29:07.804Z,102134.16
2023-05-20T11:31:34.609Z,102134.66
2023-05-20T11:34:01.709Z,102126.28
2023-05-20T11:36:29.027Z,102134.78
2023-05-20T11:38:58.546Z,102126.38
2023-05-20T11:41:26.922Z,102126.38
2023-05-20T11:44:00.762Z,102115.06
2023-05-20T11:46:28.579Z,102123.25
2023-05-20T11:48:56.453Z,102126.22
2023-05-20T11:51:30.235Z,102119.91
2023-05-20T11:54:02.107Z,102114.31
2023-05-20T11:56:30.671Z,102119.34
2023-05-20T11:58:59.527Z,102120.19
2023-05-20T12:01:28.288Z,102125.66
2023-05-20T12:03:55.439Z,102124.41
2023-05-20T12:06:22.462Z,102114.88
2023-05-20T12:08:49.309Z,102111.38
2023-05-20T12:11:16.077Z,102118.50
2023-05-20T12:13:42.980Z,102113.06
2023-05-20T12:16:09.881Z,102110.41
2023-05-20T12:18:36.875Z,102114.75
2023-05-20T12:21:03.770Z,102105.31
2023-05-20T12:23:34.219Z,102106.16
2023-05-20T12:26:01.341Z,102107.06
2023-05-20T12:28:28.273Z,102107.53
2023-05-20T12:30:55.045Z,102103.34
2023-05-20T12:33:21.871Z,102106.16
2023-05-20T12:35:48.691Z,102103.59
2023-05-20T12:38:15.676Z,102107.56
2023-05-20T12:40:42.625Z,102101.06
2023-05-20T12:43:09.427Z,102106.28
2023-05-20T12:45:36.352Z,102094.06
2023-05-20T12:48:03.317Z,102086.94
2023-05-20T12:50:30.473Z,102092.59
2023-05-20T12:52:57.342Z,102092.81
2023-05-20T12:55:24.146Z,102090.03
2023-05-20T12:57:51.233Z,102083.25
2023-05-20T13:00:18.186Z,102083.25
2023-05-20T13:02:45.212Z,102082.28
2023-05-20T13:05:12.436Z,102088.53
2023-05-20T13:07:39.613Z,102087.28
2023-05-20T13:10:07.543Z,102083.28
2023-05-20T13:12:35.834Z,102077.78
2023-05-20T13:15:03.317Z,102078.22
2023-05-20T13:17:31.061Z,102074.75
2023-05-20T13:19:58.437Z,102071.88
2023-05-20T13:22:25.258Z,102063.47
2023-05-20T13:24:51.976Z,102056.63
2023-05-20T13:27:18.730Z,102057.78
2023-05-20T13:29:46.140Z,102050.09
2023-05-20T13:32:13.064Z,102054.88
2023-05-20T13:34:39.880Z,102055.34
2023-05-20T13:37:07.125Z,102042.69
2023-05-20T13:39:36.492Z,102038.56
2023-05-20T13:42:04.455Z,102049.13
2023-05-20T13:44:32.554Z,102033.13
2023-05-20T13:46:59.776Z,102032.69
2023-05-20T13:49:27.175Z,102035.94
2023-05-20T13:51:54.188Z,102030.75
2023-05-20T13:54:22.272Z,102028.06
2023-05-20T13:56:49.063Z,102029.03
2023-05-20T13:59:16.005Z,102039.06
2023-05-20T14:01:45.419Z,102035.28
2023-05-20T14:04:21.869Z,102024.69
2023-05-20T14:06:48.761Z,102025.94
2023-05-20T14:09:15.539Z,102019.63
2023-05-20T14:11:42.440Z,102023.88
2023-05-20T14:14:09.219Z,102029.47
2023-05-20T14:16:37.178Z,102019.47
2023-05-20T14:19:04.983Z,102018.56
2023-05-20T14:21:33.575Z,102010.44
2023-05-20T14:24:01.430Z,102007.19
2023-05-20T14:26:28.811Z,102016.03
2023-05-20T14:28:55.633Z,102009.25
2023-05-20T14:31:22.445Z,102016.31
2023-05-20T14:33:49.555Z,102008.91
2023-05-20T14:36:16.383Z,102011.72
2023-05-20T14:38:43.258Z,102008.91
2023-05-20T14:41:10.103Z,101999.69
2023-05-20T14:43:37.005Z,101985.97
2023-05-20T14:46:04.219Z,101983.88
2023-05-20T14:48:30.980Z,101990.69
2023-05-20T14:50:59.659Z,102000.34
2023-05-20T14:53:26.455Z,101996.78
2023-05-20T14:55:53.200Z,101986.25
2023-05-20T14:58:19.990Z,101985.88
2023-05-20T15:00:46.883Z,101982.00
2023-05-20T15:03:13.958Z,101980.91
2023-05-20T15:05:41.398Z,101977.09
2023-05-20T15:08:08.206Z,101977.53
2023-05-20T15:10:35.349Z,101967.97
2023-05-20T15:13:02.360Z,101963.97
2023-05-20T15:15:29.170Z,101957.94
2023-05-20T15:17:56.721Z,101947.97
2023-05-20T15:20:23.549Z,101941.25
2023-05-20T15:22:50.332Z,101946.44
2023-05-20T15:25:17.252Z,101943.63
2023-05-20T15:27:43.966Z,101949.06
2023-05-20T15:30:11.641Z,101953.78
2023-05-20T15:32:39.775Z,101951.97
2023-05-20T15:35:08.079Z,101957.06
2023-05-20T15:37:34.955Z,101964.66
2023-05-20T15:40:02.490Z,101955.06
2023-05-20T15:42:29.297Z,101947.56
2023-05-20T15:44:56.156Z,101951.63
2023-05-20T15:47:22.976Z,101959.66
2023-05-20T15:49:49.830Z,101952.44
2023-05-20T15:52:17.701Z,101950.22
2023-05-20T15:54:44.473Z,101952.09
2023-05-20T15:57:11.744Z,101953.88
2023-05-20T15:59:38.614Z,101952.97
2023-05-20T16:02:05.695Z,101957.31
2023-05-20T16:04:32.685Z,101956.88
2023-05-20T16:06:59.590Z,101948.84
2023-05-20T16:09:26.495Z,101952.81
2023-05-20T16:11:53.297Z,101951.72
2023-05-20T16:14:20.047Z,101951.44
2023-05-20T16:16:46.899Z,101952.00
2023-05-20T16:19:13.828Z,101938.09
2023-05-20T16:21:40.752Z,101935.75
2023-05-20T16:24:07.546Z,101929.94
2023-05-20T16:26:34.294Z,101938.63
2023-05-20T16:29:01.351Z,101941.25
2023-05-20T16:31:28.281Z,101941.06
2023-05-20T16:33:55.252Z,101942.97
2023-05-20T16:36:22.213Z,101939.72
2023-05-20T16:38:49.068Z,101932.06
2023-05-20T16:41:16.431Z,101942.34
2023-05-20T16:43:44.408Z,101944.25
2023-05-20T16:46:13.196Z,101927.34
2023-05-20T16:48:40.208Z,101923.28
2023-05-20T16:51:07.102Z,101922.84
2023-05-20T16:53:34.049Z,101918.41
2023-05-20T16:56:00.873Z,101920.78
2023-05-20T16:58:27.685Z,101919.50
2023-05-20T17:00:55.279Z,101911.47
2023-05-20T17:03:22.222Z,101904.69
2023-05-20T17:05:49.124Z,101901.25
2023-05-20T17:08:16.540Z,101896.19
2023-05-20T17:10:43.356Z,101893.78
2023-05-20T17:13:11.178Z,101894.94
2023-05-20T17:15:38.042Z,101884.13
2023-05-20T17:18:04.913Z,101887.91
2023-05-20T17:20:33.517Z,101899.44
2023-05-20T17:23:00.861Z,101894.47
2023-05-20T17:25:28.473Z,101894.03
2023-05-20T17:27:55.319Z,101883.56
2023-05-20T17:30:22.408Z,101889.97
2023-05-20T17:32:50.519Z,101884.94
2023-05-20T17:35:20.575Z,101886.47
2023-05-20T17:37:47.466Z,101891.16
2023-05-20T17:40:14.324Z,101884.66
2023-05-20T17:42:41.173Z,101888.72
2023-05-20T17:45:08.479Z,101885.47
2023-05-20T17:47:35.276Z,101878.94
2023-05-20T17:50:02.871Z,101876.41
2023-05-20T17:52:29.683Z,101880.47
2023-05-20T17:54:57.516Z,101877.78
2023-05-20T17:57:24.329Z,101884.75
2023-05-20T17:59:51.393Z,101881.25
2023-05-20T18:02:19.240Z,101883.69
2023-05-20T18:04:46.218Z,101884.94
2023-05-20T18:07:17.842Z,101889.03
2023-05-20T18:09:44.622Z,101893.09
2023-05-20T18:12:11.366Z,101886.41
2023-05-20T18:14:38.581Z,101890.16
2023-05-20T18:17:05.562Z,101889.22
2023-05-20T18:19:35.570Z,101892.28
2023-05-20T18:22:02.886Z,101892.66
2023-05-20T18:24:29.799Z,101897.75
2023-05-20T18:26:57.407Z,101885.41
2023-05-20T18:29:25.727Z,101892.50
2023-05-20T18:31:52.947Z,101889.72
2023-05-20T18:34:19.792Z,101889.38
2023-05-20T18:36:46.559Z,101880.31
2023-05-20T18:39:16.093Z,101878.50
2023-05-20T18:41:47.006Z,101876.41
2023-05-20T18:44:15.143Z,101878.75
2023-05-20T18:46:42.360Z,101874.81
2023-05-20T18:49:13.087Z,101883.53
2023-05-20T18:51:40.434Z,101887.50
2023-05-20T18:54:07.640Z,101878.56
2023-05-20T18:56:34.988Z,101880.09
2023-05-20T18:59:01.764Z,101887.56
2023-05-20T19:01:30.123Z,101879.53
2023-05-20T19:03:57.057Z,101884.66
2023-05-20T19:06:24.446Z,101881.41
2023-05-20T19:08:51.833Z,101886.53
2023-05-20T19:11:18.840Z,101880.25
2023-05-20T19:13:45.674Z,101880.25
2023-05-20T19:16:12.620Z,101882.66
2023-05-20T19:18:39.663Z,101887.09
2023-05-20T19:21:06.554Z,101883.50
2023-05-20T19:23:33.386Z,101889.06
2023-05-20T19:26:00.182Z,101891.88
2023-05-20T19:28:27.005Z,101878.97
2023-05-20T19:30:54.129Z,101870.13
2023-05-20T19:33:21.537Z,101872.38
2023-05-20T19:35:48.845Z,101870.72
2023-05-20T19:38:15.797Z,101865.84
2023-05-20T19:40:44.697Z,101863.44
2023-05-20T19:43:11.508Z,101868.91
2023-05-20T19:45:38.471Z,101874.38
2023-05-20T19:48:06.596Z,101882.22
2023-05-20T19:50:34.152Z,101884.75
2023-05-20T19:53:03.383Z,101891.41
2023-05-20T19:55:30.374Z,101886.19
2023-05-20T19:57:57.323Z,101879.56
2023-05-20T20:00:24.406Z,101879.47
2023-05-20T20:02:51.422Z,101870.28
2023-05-20T20:05:18.492Z,101879.72
2023-05-20T20:07:46.362Z,101881.91
2023-05-20T20:10:13.451Z,101877.00
2023-05-20T20:12:40.227Z,101878.53
2023-05-20T20:15:08.193Z,101868.75
2023-05-20T20:17:34.949Z,101871.78
2023-05-20T20:20:01.753Z,101884.09
2023-05-20T20:22:28.641Z,101873.63
2023-05-20T20:24:55.563Z,101866.06
2023-05-20T20:27:23.945Z,101871.66
2023-05-20T20:29:51.406Z,101872.84
2023-05-20T20:32:18.676Z,101873.41
2023-05-20T20:34:46.260Z,101871.22
2023-05-20T20:37:15.433Z,101873.19
2023-05-20T20:39:48.290Z,101871.09
2023-05-20T20:42:15.196Z,101872.25
2023-05-20T20:44:48.530Z,101874.13
2023-05-20T20:47:16.091Z,101875.63
2023-05-20T20:49:43.239Z,101877.22
2023-05-20T20:52:10.445Z,101884.81
2023-05-20T20:54:40.188Z,101880.84
2023-05-20T20:57:08.919Z,101893.97
2023-05-20T20:59:35.746Z,101889.91
2023-05-20T21:02:03.383Z,101897.47
2023-05-20T21:04:30.258Z,101894.31
2023-05-20T21:06:59.539Z,101889.22
2023-05-20T21:09:27.960Z,101885.50
2023-05-20T21:11:57.218Z,101876.69
2023-05-20T21:14:24.235Z,101872.72
2023-05-20T21:16:51.217Z,101875.84
2023-05-20T21:19:18.193Z,101880.50
2023-05-20T21:21:45.152Z,101866.22
2023-05-20T21:24:11.916Z,101872.94
2023-05-20T21:26:38.621Z,101876.41
2023-05-20T21:29:06.450Z,101876.66
2023-05-20T21:31:33.311Z,101875.81
2023-05-20T21:34:00.213Z,101875.72
2023-05-20T21:36:26.967Z,101860.16
2023-05-20T21:38:53.666Z,101875.00
2023-05-20T21:41:21.563Z,101862.03
2023-05-20T21:43:48.391Z,101857.59
2023-05-20T21:46:15.176Z,101863.84
2023-05-20T21:48:42.008Z,101859.00
2023-05-20T21:51:08.883Z,101850.63
2023-05-20T21:53:35.875Z,101851.56
2023-05-20T21:56:02.787Z,101839.94
2023-05-20T21:58:29.589Z,101853.44
2023-05-20T22:00:56.600Z,101850.50
2023-05-20T22:03:23.647Z,101843.19
2023-05-20T22:05:50.576Z,101847.81
2023-05-20T22:08:17.453Z,101847.34
2023-05-20T22:10:44.401Z,101843.06
2023-05-20T22:13:11.168Z,101845.50
2023-05-20T22:15:38.089Z,101842.69
2023-05-20T22:18:07.561Z,101846.53
2023-05-20T22:20:34.749Z,101839.22
2023-05-20T22:23:01.503Z,101854.31
2023-05-20T22:25:28.349Z,101858.72
2023-05-20T22:27:55.137Z,101855.25
2023-05-20T22:30:21.959Z,101858.03
2023-05-20T22:32:48.801Z,101845.72
2023-05-20T22:35:15.754Z,101840.03
2023-05-20T22:37:43.556Z,101843.84
2023-05-20T22:40:10.849Z,101847.81
2023-05-20T22:42:37.688Z,101853.38
2023-05-20T22:45:04.899Z,101847.81
2023-05-20T22:47:32.877Z,101854.53
2023-05-20T22:50:02.712Z,101853.25
2023-05-20T22:52:29.982Z,101849.19
2023-05-20T22:54:58.660Z,101846.84
2023-05-20T22:57:25.854Z,101850.13
2023-05-20T22:59:54.033Z,101842.91
2023-05-20T23:02:21.072Z,101841.63
2023-05-20T23:04:48.125Z,101840.34
2023-05-20T23:07:16.264Z,101843.16
2023-05-20T23:09:43.158Z,101853.94
2023-05-20T23:12:09.920Z,101843.16
2023-05-20T23:14:36.721Z,101841.72
2023-05-20T23:17:03.640Z,101844.53
2023-05-20T23:19:30.501Z,101842.09
2023-05-20T23:21:58.559Z,101852.06
2023-05-20T23:24:25.387Z,101844.06
2023-05-20T23:26:55.132Z,101852.06
2023-05-20T23:29:22.376Z,101847.31
2023-05-20T23:31:50.894Z,101832.78
2023-05-20T23:34:18.209Z,101836.75
2023-05-20T23:36:45.828Z,101835.47
2023-05-20T23:39:12.636Z,101832.19
2023-05-20T23:41:39.389Z,101832.81
2023-05-20T23:44:06.211Z,101838.75
2023-05-20T23:46:32.957Z,101826.34
2023-05-20T23:49:02.047Z,101821.91
2023-05-20T23:51:28.878Z,101829.13
2023-05-20T23:53:55.750Z,101824.38
2023-05-20T23:56:22.558Z,101829.13
2023-05-20T23:58:49.370Z,101826.19
